createdAt,value
2017-11-25T00:01:20.443Z,55.33
2017-11-25T00:03:47.970Z,58.97
2017-11-25T00:06:15.517Z,54.67
2017-11-25T00:08:43.075Z,54.93
2017-11-25T00:11:10.616Z,44.70
2017-11-25T00:13:38.190Z,41.93
2017-11-25T00:16:05.723Z,55.63
2017-11-25T00:18:33.240Z,51.63
2017-11-25T00:21:00.992Z,50.63
2017-11-25T00:23:28.511Z,56.13
2017-11-25T00:25:56.039Z,61.47
2017-11-25T00:28:23.638Z,50.00
2017-11-25T00:30:51.153Z,56.97
2017-11-25T00:33:18.676Z,54.53
2017-11-25T00:35:46.421Z,61.10
2017-11-25T00:38:13.947Z,50.83
2017-11-25T00:40:41.473Z,49.47
2017-11-25T00:43:09.036Z,49.33
2017-11-25T00:45:36.722Z,44.57
2017-11-25T00:48:04.241Z,46.40
2017-11-25T00:50:31.762Z,42.40
2017-11-25T00:52:59.355Z,47.80
2017-11-25T00:55:26.873Z,42.83
2017-11-25T00:57:54.390Z,39.63
2017-11-25T01:00:22.144Z,39.50
2017-11-25T01:02:49.661Z,46.17
2017-11-25T01:05:17.178Z,50.60
2017-11-25T01:07:44.760Z,51.10
2017-11-25T01:10:12.273Z,48.53
2017-11-25T01:12:39.792Z,41.03
2017-11-25T01:15:07.372Z,41.10
2017-11-25T01:17:34.899Z,51.60
2017-11-25T01:20:02.413Z,47.70
2017-11-25T01:22:29.965Z,42.90
2017-11-25T01:24:57.534Z,48.70
2017-11-25T01:27:25.068Z,51.90
2017-11-25T01:29:52.583Z,47.63
2017-11-25T01:32:20.158Z,47.20
2017-11-25T01:34:47.717Z,49.37
2017-11-25T01:37:15.251Z,53.77
2017-11-25T01:39:42.821Z,44.87
2017-11-25T01:42:10.339Z,52.87
2017-11-25T01:44:37.873Z,45.93
2017-11-25T01:47:05.635Z,54.80
2017-11-25T01:49:33.171Z,60.07
2017-11-25T01:52:00.688Z,48.23
2017-11-25T01:54:28.254Z,49.90
2017-11-25T01:56:55.790Z,51.63
2017-11-25T01:59:23.345Z,47.73
2017-11-25T02:01:50.907Z,47.67
2017-11-25T02:04:18.840Z,42.63
2017-11-25T02:06:46.381Z,47.40
2017-11-25T02:09:13.930Z,42.77
2017-11-25T02:11:41.675Z,45.50
2017-11-25T02:14:09.220Z,50.00
2017-11-25T02:16:36.761Z,50.07
2017-11-25T02:19:04.344Z,53.27
2017-11-25T02:21:31.881Z,48.10
2017-11-25T02:23:59.634Z,54.50
2017-11-25T02:26:27.169Z,54.33
2017-11-25T02:28:54.694Z,53.03
2017-11-25T02:31:22.466Z,53.77
2017-11-25T02:33:49.989Z,44.87
2017-11-25T02:36:17.558Z,42.67
2017-11-25T02:38:45.273Z,48.47
2017-11-25T02:41:12.814Z,47.90
2017-11-25T02:43:40.363Z,46.60
2017-11-25T02:46:07.960Z,55.80
2017-11-25T02:48:35.498Z,48.20
2017-11-25T02:51:03.046Z,66.63
2017-11-25T02:53:30.643Z,45.17
2017-11-25T02:55:58.190Z,51.83
2017-11-25T02:58:25.725Z,53.03
2017-11-25T03:00:58.131Z,49.90
2017-11-25T03:03:25.661Z,50.37
2017-11-25T03:05:53.220Z,58.53
2017-11-25T03:08:20.813Z,50.57
2017-11-25T03:10:48.365Z,61.33
2017-11-25T03:13:15.927Z,43.47
2017-11-25T03:15:43.483Z,55.87
2017-11-25T03:18:11.014Z,52.93
2017-11-25T03:20:38.725Z,59.07
2017-11-25T03:23:06.245Z,53.23
2017-11-25T03:25:33.781Z,43.43
2017-11-25T03:28:01.335Z,51.63
2017-11-25T03:30:28.867Z,64.43
2017-11-25T03:32:56.595Z,51.00
2017-11-25T03:35:24.135Z,55.47
2017-11-25T03:37:51.672Z,60.07
2017-11-25T03:40:19.254Z,58.00
2017-11-25T03:42:46.792Z,49.80
2017-11-25T03:45:14.304Z,46.30
2017-11-25T03:47:41.869Z,44.37
2017-11-25T03:50:09.385Z,45.80
2017-11-25T03:52:36.907Z,47.40
2017-11-25T03:55:04.469Z,62.70
2017-11-25T03:57:31.995Z,50.80
2017-11-25T03:59:59.583Z,44.47
2017-11-25T04:02:27.114Z,78.23
2017-11-25T04:04:54.629Z,54.30
2017-11-25T04:07:22.411Z,59.87
2017-11-25T04:09:49.938Z,171.60
2017-11-25T04:12:17.462Z,201.67
2017-11-25T04:14:45.054Z,533.23
2017-11-25T04:17:12.779Z,508.90
2017-11-25T04:19:40.320Z,512.83
2017-11-25T04:22:07.886Z,248.43
2017-11-25T04:24:35.440Z,188.93
2017-11-25T04:27:03.199Z,220.17
2017-11-25T04:29:30.751Z,150.30
2017-11-25T04:31:58.270Z,208.30
2017-11-25T04:34:25.997Z,85.30
2017-11-25T04:36:53.528Z,111.40
2017-11-25T04:39:21.081Z,77.57
2017-11-25T04:41:48.640Z,110.13
2017-11-25T04:44:16.161Z,66.63
2017-11-25T04:46:43.725Z,123.67
2017-11-25T04:49:11.260Z,187.97
2017-11-25T04:51:38.823Z,90.63
2017-11-25T04:54:06.379Z,98.83
2017-11-25T04:56:33.924Z,143.60
2017-11-25T04:59:01.493Z,103.70
2017-11-25T05:01:29.213Z,77.80
2017-11-25T05:03:56.786Z,96.10
2017-11-25T05:06:24.322Z,90.07
2017-11-25T05:08:51.897Z,188.63
2017-11-25T05:11:19.434Z,223.93
2017-11-25T05:13:46.969Z,184.30
2017-11-25T05:16:14.525Z,232.07
2017-11-25T05:18:42.055Z,126.60
2017-11-25T05:21:09.645Z,147.63
2017-11-25T05:23:37.213Z,242.03
2017-11-25T05:26:04.758Z,136.10
2017-11-25T05:28:32.470Z,205.17
2017-11-25T05:31:00.009Z,215.40
2017-11-25T05:33:27.542Z,169.57
2017-11-25T05:35:55.126Z,135.33
2017-11-25T05:38:22.661Z,83.87
2017-11-25T05:40:50.201Z,82.37
2017-11-25T05:43:17.777Z,49.80
2017-11-25T05:45:45.310Z,51.60
2017-11-25T05:48:12.834Z,67.30
2017-11-25T05:50:40.570Z,168.17
2017-11-25T05:53:08.110Z,111.07
2017-11-25T05:55:35.650Z,86.73
2017-11-25T05:58:03.202Z,86.33
2017-11-25T06:00:30.729Z,81.60
2017-11-25T06:02:58.331Z,112.73
2017-11-25T06:05:25.853Z,100.90
2017-11-25T06:07:53.390Z,68.60
2017-11-25T06:10:20.937Z,63.27
2017-11-25T06:12:48.454Z,66.17
2017-11-25T06:15:16.193Z,61.20
2017-11-25T06:17:43.723Z,65.47
2017-11-25T06:20:11.259Z,58.60
2017-11-25T06:22:38.839Z,88.90
2017-11-25T06:25:06.363Z,65.90
2017-11-25T06:27:33.917Z,60.33
2017-11-25T06:30:01.490Z,82.93
2017-11-25T06:32:29.030Z,78.07
2017-11-25T06:34:56.578Z,85.10
2017-11-25T06:37:24.253Z,60.87
2017-11-25T06:39:51.798Z,75.80
2017-11-25T06:42:19.347Z,56.00
2017-11-25T06:44:46.943Z,55.27
2017-11-25T06:47:14.647Z,117.67
2017-11-25T06:49:42.178Z,98.20
2017-11-25T06:52:09.734Z,86.57
2017-11-25T06:54:37.259Z,54.73
2017-11-25T06:57:04.820Z,112.47
2017-11-25T06:59:32.347Z,92.87
2017-11-25T07:01:59.911Z,57.37
2017-11-25T07:04:27.442Z,48.10
2017-11-25T07:06:55.025Z,40.97
2017-11-25T07:09:22.566Z,44.73
2017-11-25T07:11:50.148Z,39.60
2017-11-25T07:14:17.827Z,46.10
2017-11-25T07:16:45.382Z,73.63
2017-11-25T07:19:12.926Z,63.03
2017-11-25T07:21:40.666Z,63.03
2017-11-25T07:24:08.218Z,49.33
2017-11-25T07:26:35.753Z,51.07
2017-11-25T07:29:03.417Z,42.83
2017-11-25T07:31:30.949Z,44.37
2017-11-25T07:33:58.484Z,49.67
2017-11-25T07:36:26.608Z,43.57
2017-11-25T07:38:54.146Z,39.77
2017-11-25T07:41:21.690Z,46.80
2017-11-25T07:43:49.273Z,49.77
2017-11-25T07:46:16.812Z,49.53
2017-11-25T07:48:44.366Z,58.33
2017-11-25T07:51:11.953Z,50.10
2017-11-25T07:53:41.663Z,64.53
2017-11-25T07:56:09.194Z,67.20
2017-11-25T07:58:36.745Z,61.90
2017-11-25T08:01:04.286Z,89.20
2017-11-25T08:03:31.851Z,63.33
2017-11-25T08:05:59.391Z,60.17
2017-11-25T08:08:26.961Z,57.17
2017-11-25T08:10:54.489Z,73.50
2017-11-25T08:13:22.046Z,81.33
2017-11-25T08:15:49.621Z,102.67
2017-11-25T08:18:17.154Z,38.63
2017-11-25T08:20:44.686Z,40.50
2017-11-25T08:23:12.285Z,33.87
2017-11-25T08:25:39.834Z,27.70
2017-11-25T08:28:07.372Z,28.20
2017-11-25T08:30:34.932Z,27.27
2017-11-25T08:33:02.479Z,27.73
2017-11-25T08:35:30.064Z,33.83
2017-11-25T08:37:57.590Z,24.77
2017-11-25T08:40:25.119Z,23.70
2017-11-25T08:42:53.367Z,25.37
2017-11-25T08:45:20.906Z,27.90
2017-11-25T08:47:48.442Z,24.47
2017-11-25T08:50:15.990Z,22.30
2017-11-25T08:52:43.528Z,20.13
2017-11-25T08:55:11.079Z,20.27
2017-11-25T08:57:38.611Z,24.90
2017-11-25T09:00:06.166Z,29.50
2017-11-25T09:02:33.701Z,28.60
2017-11-25T09:05:01.389Z,20.23
2017-11-25T09:07:28.922Z,23.47
2017-11-25T09:09:56.447Z,31.43
2017-11-25T09:12:24.210Z,29.90
2017-11-25T09:14:51.768Z,27.47
2017-11-25T09:17:19.303Z,24.70
2017-11-25T09:19:46.870Z,21.40
2017-11-25T09:22:14.420Z,32.03
2017-11-25T09:24:41.969Z,24.63
2017-11-25T09:27:09.509Z,20.30
2017-11-25T09:29:37.080Z,22.77
2017-11-25T09:32:04.618Z,29.70
2017-11-25T09:34:32.134Z,29.17
2017-11-25T09:36:59.819Z,24.70
2017-11-25T09:39:27.343Z,19.50
2017-11-25T09:41:54.869Z,23.23
2017-11-25T09:44:22.419Z,28.43
2017-11-25T09:46:49.967Z,30.57
2017-11-25T09:49:17.626Z,25.57
2017-11-25T09:51:45.172Z,30.37
2017-11-25T09:54:12.698Z,25.17
2017-11-25T09:56:40.285Z,26.90
2017-11-25T09:59:07.823Z,23.17
2017-11-25T10:01:35.337Z,28.27
2017-11-25T10:04:02.891Z,23.03
2017-11-25T10:06:30.475Z,21.40
2017-11-25T10:08:57.999Z,24.97
2017-11-25T10:11:25.536Z,22.23
2017-11-25T10:13:53.225Z,22.80
2017-11-25T10:16:20.738Z,26.63
2017-11-25T10:18:48.260Z,20.60
2017-11-25T10:21:15.823Z,24.27
2017-11-25T10:23:43.407Z,28.93
2017-11-25T10:26:10.979Z,23.40
2017-11-25T10:28:38.502Z,20.43
2017-11-25T10:31:06.018Z,27.97
2017-11-25T10:33:33.565Z,22.60
2017-11-25T10:36:01.138Z,25.20
2017-11-25T10:38:28.661Z,26.03
2017-11-25T10:40:56.223Z,28.33
2017-11-25T10:43:23.772Z,26.73
2017-11-25T10:45:51.310Z,33.50
2017-11-25T10:48:18.866Z,30.23
2017-11-25T10:50:46.440Z,28.40
2017-11-25T10:53:14.009Z,27.50
2017-11-25T10:55:41.578Z,24.57
2017-11-25T10:58:09.110Z,30.40
2017-11-25T11:00:36.789Z,27.50
2017-11-25T11:03:04.300Z,25.03
2017-11-25T11:05:31.821Z,33.90
2017-11-25T11:07:59.362Z,33.13
2017-11-25T11:10:26.891Z,27.40
2017-11-25T11:12:54.478Z,29.87
2017-11-25T11:15:22.018Z,25.73
2017-11-25T11:17:49.542Z,27.57
2017-11-25T11:20:17.087Z,27.00
2017-11-25T11:22:44.679Z,25.20
2017-11-25T11:25:12.219Z,27.03
2017-11-25T11:27:39.738Z,32.60
2017-11-25T11:30:07.473Z,26.80
2017-11-25T11:32:34.999Z,29.67
2017-11-25T11:35:02.521Z,30.77
2017-11-25T11:37:30.080Z,24.67
2017-11-25T11:39:57.602Z,23.20
2017-11-25T11:42:25.341Z,27.47
2017-11-25T11:44:52.866Z,22.00
2017-11-25T11:47:20.399Z,30.93
2017-11-25T11:49:47.937Z,19.10
2017-11-25T11:52:16.559Z,23.90
2017-11-25T11:54:44.109Z,20.97
2017-11-25T11:57:11.660Z,31.03
2017-11-25T11:59:39.229Z,24.50
2017-11-25T12:02:06.757Z,17.83
2017-11-25T12:04:34.286Z,18.57
2017-11-25T12:07:01.980Z,17.93
2017-11-25T12:09:29.492Z,17.17
2017-11-25T12:11:57.019Z,14.90
2017-11-25T12:14:24.557Z,16.70
2017-11-25T12:16:52.160Z,17.23
2017-11-25T12:19:19.697Z,16.83
2017-11-25T12:21:47.214Z,17.73
2017-11-25T12:24:14.801Z,18.50
2017-11-25T12:26:42.332Z,12.73
2017-11-25T12:29:09.841Z,18.30
2017-11-25T12:31:37.378Z,14.93
2017-11-25T12:34:05.095Z,15.13
2017-11-25T12:36:32.605Z,15.80
2017-11-25T12:39:00.146Z,23.20
2017-11-25T12:41:27.814Z,19.27
2017-11-25T12:43:55.363Z,21.20
2017-11-25T12:46:22.916Z,17.27
2017-11-25T12:48:50.581Z,20.60
2017-11-25T12:51:18.127Z,15.87
2017-11-25T12:53:46.693Z,20.30
2017-11-25T12:56:14.298Z,22.50
2017-11-25T12:58:41.827Z,16.10
2017-11-25T13:01:09.353Z,16.30
2017-11-25T13:03:36.906Z,23.63
2017-11-25T13:06:04.417Z,19.87
2017-11-25T13:08:32.133Z,15.13
2017-11-25T13:10:59.654Z,14.80
2017-11-25T13:13:27.173Z,17.73
2017-11-25T13:15:54.733Z,15.03
2017-11-25T13:18:22.245Z,20.13
2017-11-25T13:20:49.757Z,15.00
2017-11-25T13:23:17.329Z,13.97
2017-11-25T13:25:44.841Z,19.10
2017-11-25T13:28:12.368Z,16.93
2017-11-25T13:30:39.913Z,20.33
2017-11-25T13:33:07.440Z,12.13
2017-11-25T13:35:35.107Z,19.13
2017-11-25T13:38:02.642Z,14.80
2017-11-25T13:40:30.166Z,15.90
2017-11-25T13:42:57.725Z,10.67
2017-11-25T13:45:25.285Z,15.87
2017-11-25T13:47:52.814Z,18.80
2017-11-25T13:50:20.348Z,23.97
2017-11-25T13:52:47.927Z,35.53
2017-11-25T13:55:15.442Z,16.97
2017-11-25T13:57:43.002Z,19.07
2017-11-25T14:00:10.543Z,8.43
2017-11-25T14:02:38.086Z,5.97
2017-11-25T14:05:05.653Z,5.00
2017-11-25T14:07:33.190Z,5.10
2017-11-25T14:10:00.754Z,2.80
2017-11-25T14:12:28.330Z,3.17
2017-11-25T14:14:55.875Z,2.67
2017-11-25T14:17:23.395Z,2.83
2017-11-25T14:19:50.938Z,3.77
2017-11-25T14:22:18.498Z,5.03
2017-11-25T14:24:46.026Z,1.73
2017-11-25T14:27:13.562Z,6.87
2017-11-25T14:29:41.227Z,6.67
2017-11-25T14:32:08.733Z,4.20
2017-11-25T14:34:36.248Z,2.67
2017-11-25T14:37:03.822Z,2.00
2017-11-25T14:39:31.330Z,3.37
2017-11-25T14:41:58.849Z,1.80
2017-11-25T14:44:26.413Z,3.00
2017-11-25T14:46:53.929Z,3.67
2017-11-25T14:49:21.454Z,2.93
2017-11-25T14:51:48.986Z,6.73
2017-11-25T14:54:16.642Z,10.67
2017-11-25T14:56:44.153Z,4.60
2017-11-25T14:59:11.661Z,3.37
2017-11-25T15:01:39.254Z,3.00
2017-11-25T15:04:06.773Z,3.13
2017-11-25T15:06:34.295Z,3.37
2017-11-25T15:09:01.835Z,3.50
2017-11-25T15:11:29.398Z,3.57
2017-11-25T15:13:56.923Z,3.53
2017-11-25T15:16:24.441Z,3.63
2017-11-25T15:18:52.205Z,4.30
2017-11-25T15:21:19.749Z,4.37
2017-11-25T15:23:47.266Z,2.80
2017-11-25T15:26:14.811Z,4.03
2017-11-25T15:28:42.395Z,7.20
2017-11-25T15:31:09.933Z,7.10
2017-11-25T15:33:37.678Z,5.40
2017-11-25T15:36:05.235Z,7.30
2017-11-25T15:38:32.781Z,10.90
2017-11-25T15:41:00.539Z,4.20
2017-11-25T15:43:28.069Z,8.53
2017-11-25T15:45:55.577Z,4.53
2017-11-25T15:48:23.134Z,5.53
2017-11-25T15:50:50.692Z,7.03
2017-11-25T15:53:18.278Z,11.40
2017-11-25T15:55:45.809Z,9.73
2017-11-25T15:58:13.334Z,9.47
2017-11-25T16:00:40.940Z,11.07
2017-11-25T16:03:08.461Z,11.63
2017-11-25T16:05:35.976Z,8.13
2017-11-25T16:08:03.539Z,10.93
2017-11-25T16:10:31.080Z,8.63
2017-11-25T16:12:58.589Z,9.70
2017-11-25T16:15:26.155Z,9.17
2017-11-25T16:17:53.666Z,10.20
2017-11-25T16:20:21.203Z,10.73
2017-11-25T16:22:48.870Z,7.87
2017-11-25T16:25:16.393Z,11.43
2017-11-25T16:27:43.919Z,9.90
2017-11-25T16:30:11.513Z,10.73
2017-11-25T16:32:39.046Z,10.17
2017-11-25T16:35:06.568Z,11.30
2017-11-25T16:37:34.166Z,11.90
2017-11-25T16:40:01.690Z,15.43
2017-11-25T16:42:29.205Z,10.53
2017-11-25T16:44:56.922Z,10.07
2017-11-25T16:47:24.438Z,9.97
2017-11-25T16:49:51.971Z,13.23
2017-11-25T16:52:19.550Z,10.40
2017-11-25T16:54:47.064Z,9.33
2017-11-25T16:57:14.599Z,15.47
2017-11-25T16:59:42.148Z,11.47
2017-11-25T17:02:09.688Z,11.20
2017-11-25T17:04:37.216Z,15.33
2017-11-25T17:07:04.757Z,9.37
2017-11-25T17:09:32.278Z,14.00
2017-11-25T17:11:59.866Z,9.87
2017-11-25T17:14:27.396Z,14.07
2017-11-25T17:16:54.911Z,11.10
2017-11-25T17:19:22.479Z,11.53
2017-11-25T17:21:49.993Z,9.93
2017-11-25T17:24:17.507Z,7.70
2017-11-25T17:26:45.047Z,11.60
2017-11-25T17:29:12.622Z,11.43
2017-11-25T17:31:40.143Z,13.67
2017-11-25T17:34:07.674Z,20.53
2017-11-25T17:36:35.214Z,11.77
2017-11-25T17:39:02.730Z,11.70
2017-11-25T17:41:30.302Z,18.30
2017-11-25T17:43:57.825Z,7.83
2017-11-25T17:46:25.393Z,9.93
2017-11-25T17:48:52.916Z,8.47
2017-11-25T17:51:20.420Z,9.50
2017-11-25T17:53:47.957Z,10.00
2017-11-25T17:56:15.470Z,12.03
2017-11-25T17:58:43.027Z,10.83
2017-11-25T18:01:10.551Z,19.37
2017-11-25T18:03:38.101Z,11.73
2017-11-25T18:06:05.618Z,15.60
2017-11-25T18:08:33.206Z,14.00
2017-11-25T18:11:00.725Z,15.70
2017-11-25T18:13:28.278Z,18.77
2017-11-25T18:15:55.862Z,13.70
2017-11-25T18:18:23.391Z,11.03
2017-11-25T18:20:50.920Z,13.70
2017-11-25T18:23:18.466Z,14.30
2017-11-25T18:25:46.197Z,13.07
2017-11-25T18:28:13.726Z,13.90
2017-11-25T18:30:41.251Z,16.33
2017-11-25T18:33:08.792Z,9.50
2017-11-25T18:35:36.316Z,11.37
2017-11-25T18:38:03.882Z,11.90
2017-11-25T18:40:31.421Z,14.17
2017-11-25T18:42:59.090Z,14.90
2017-11-25T18:45:26.626Z,9.30
2017-11-25T18:47:54.158Z,9.53
2017-11-25T18:50:21.689Z,12.90
2017-11-25T18:52:49.244Z,11.30
2017-11-25T18:55:16.754Z,13.27
2017-11-25T18:57:44.283Z,11.57
2017-11-25T19:00:11.863Z,18.80
2017-11-25T19:02:39.425Z,13.30
2017-11-25T19:05:06.952Z,25.77
2017-11-25T19:07:34.475Z,15.10
2017-11-25T19:10:02.018Z,13.10
2017-11-25T19:12:29.673Z,18.43
2017-11-25T19:14:57.180Z,12.07
2017-11-25T19:17:24.693Z,16.50
2017-11-25T19:19:52.234Z,18.40
2017-11-25T19:22:19.758Z,14.43
2017-11-25T19:24:47.302Z,15.97
2017-11-25T19:27:14.821Z,15.13
2017-11-25T19:29:42.561Z,11.73
2017-11-25T19:32:10.079Z,21.23
2017-11-25T19:34:37.593Z,11.33
2017-11-25T19:37:05.146Z,16.67
2017-11-25T19:39:32.789Z,12.27
2017-11-25T19:42:00.307Z,18.10
2017-11-25T19:44:27.850Z,11.37
2017-11-25T19:46:55.548Z,16.40
2017-11-25T19:49:23.079Z,18.63
2017-11-25T19:51:50.597Z,16.23
2017-11-25T19:54:18.294Z,17.90
2017-11-25T19:56:45.842Z,13.87
2017-11-25T19:59:13.372Z,21.87
2017-11-25T20:01:40.909Z,10.40
2017-11-25T20:04:08.424Z,12.57
2017-11-25T20:06:36.007Z,18.10
2017-11-25T20:09:03.559Z,14.10
2017-11-25T20:11:31.082Z,13.40
2017-11-25T20:13:58.664Z,14.07
2017-11-25T20:16:26.186Z,15.40
2017-11-25T20:18:53.705Z,14.53
2017-11-25T20:21:21.280Z,17.87
2017-11-25T20:23:48.803Z,18.47
2017-11-25T20:26:16.331Z,18.50
2017-11-25T20:28:44.013Z,18.90
2017-11-25T20:31:11.534Z,17.27
2017-11-25T20:33:39.055Z,18.60
2017-11-25T20:36:06.601Z,16.73
2017-11-25T20:38:34.146Z,16.17
2017-11-25T20:41:01.702Z,14.53
2017-11-25T20:43:29.233Z,14.03
2017-11-25T20:45:56.785Z,23.90
2017-11-25T20:48:24.297Z,18.77
2017-11-25T20:50:51.827Z,19.30
2017-11-25T20:53:19.415Z,16.93
2017-11-25T20:55:46.937Z,18.13
2017-11-25T20:58:14.440Z,15.87
2017-11-25T21:00:42.163Z,18.27
2017-11-25T21:03:09.682Z,23.00
2017-11-25T21:05:37.198Z,16.90
2017-11-25T21:08:04.759Z,19.90
2017-11-25T21:10:32.283Z,17.77
2017-11-25T21:12:59.803Z,19.43
2017-11-25T21:15:27.373Z,17.13
2017-11-25T21:17:54.896Z,21.23
2017-11-25T21:20:22.427Z,19.40
2017-11-25T21:22:50.232Z,25.03
2017-11-25T21:25:17.757Z,18.30
2017-11-25T21:27:45.282Z,21.20
2017-11-25T21:30:12.839Z,18.30
2017-11-25T21:32:40.376Z,19.07
2017-11-25T21:35:07.910Z,19.77
2017-11-25T21:37:35.462Z,18.90
2017-11-25T21:40:02.988Z,24.13
2017-11-25T21:42:30.542Z,18.03
2017-11-25T21:44:58.059Z,18.17
2017-11-25T21:47:25.594Z,16.13
2017-11-25T21:49:53.178Z,24.40
2017-11-25T21:52:20.701Z,17.73
2017-11-25T21:54:48.220Z,24.00
2017-11-25T21:57:15.937Z,13.63
2017-11-25T21:59:43.459Z,18.23
2017-11-25T22:02:10.977Z,21.70
2017-11-25T22:04:38.545Z,16.33
2017-11-25T22:07:06.071Z,21.23
2017-11-25T22:09:33.595Z,19.53
2017-11-25T22:12:01.142Z,18.80
2017-11-25T22:14:28.691Z,21.27
2017-11-25T22:16:56.206Z,19.50
2017-11-25T22:19:23.745Z,24.33
2017-11-25T22:21:51.253Z,17.80
2017-11-25T22:24:18.830Z,19.10
2017-11-25T22:26:46.380Z,21.27
2017-11-25T22:29:13.901Z,17.97
2017-11-25T22:31:41.454Z,17.80
2017-11-25T22:34:09.014Z,20.83
2017-11-25T22:36:36.597Z,22.60
2017-11-25T22:39:04.149Z,19.83
2017-11-25T22:41:31.666Z,16.63
2017-11-25T22:43:59.202Z,17.23
2017-11-25T22:46:26.738Z,18.00
2017-11-25T22:48:54.262Z,18.60
2017-11-25T22:51:22.020Z,19.57
2017-11-25T22:53:49.563Z,21.53
2017-11-25T22:56:17.077Z,21.80
2017-11-25T22:58:44.627Z,18.33
2017-11-25T23:01:12.147Z,21.03
2017-11-25T23:03:39.707Z,21.37
2017-11-25T23:06:11.246Z,20.27
2017-11-25T23:08:38.830Z,20.47
2017-11-25T23:11:06.376Z,29.70
2017-11-25T23:13:33.895Z,19.00
2017-11-25T23:16:01.466Z,23.70
2017-11-25T23:18:28.991Z,23.53
2017-11-25T23:20:56.503Z,20.20
2017-11-25T23:23:24.072Z,18.60
2017-11-25T23:25:51.585Z,18.13
2017-11-25T23:28:19.098Z,20.37
2017-11-25T23:30:46.634Z,20.67
2017-11-25T23:33:14.150Z,21.00
2017-11-25T23:35:41.714Z,22.10
2017-11-25T23:38:09.248Z,22.30
2017-11-25T23:40:36.790Z,22.10
2017-11-25T23:43:04.535Z,20.87
2017-11-25T23:45:32.054Z,30.40
2017-11-25T23:47:59.570Z,20.00
2017-11-25T23:50:27.105Z,31.70
2017-11-25T23:52:54.626Z,29.83
2017-11-25T23:55:22.164Z,23.00
2017-11-25T23:57:49.685Z,28.20
